createdAt,value
2023-03-22T00:00:39.051Z,6.86
2023-03-22T00:03:07.271Z,6.88
2023-03-22T00:05:35.905Z,6.89
2023-03-22T00:08:23.557Z,6.89
2023-03-22T00:10:56.230Z,6.87
2023-03-22T00:13:24.566Z,6.82
2023-03-22T00:15:52.582Z,6.79
2023-03-22T00:18:22.949Z,6.74
2023-03-22T00:20:52.892Z,6.71
2023-03-22T00:23:21.030Z,6.70
2023-03-22T00:25:48.893Z,6.70
2023-03-22T00:28:19.035Z,6.70
2023-03-22T00:30:56.769Z,6.58
2023-03-22T00:33:29.622Z,6.56
2023-03-22T00:35:59.964Z,6.46
2023-03-22T00:38:44.897Z,6.51
2023-03-22T00:41:14.292Z,6.55
2023-03-22T00:43:44.916Z,6.55
2023-03-22T00:46:14.129Z,6.55
2023-03-22T00:48:42.997Z,6.55
2023-03-22T00:51:11.313Z,6.54
2023-03-22T00:53:43.119Z,6.52
2023-03-22T00:56:16.278Z,6.47
2023-03-22T00:59:14.370Z,6.47
2023-03-22T01:01:47.134Z,6.49
2023-03-22T01:04:18.389Z,6.47
2023-03-22T01:06:47.552Z,6.49
2023-03-22T01:09:16.913Z,6.51
2023-03-22T01:11:46.494Z,6.57
2023-03-22T01:14:15.241Z,6.62
2023-03-22T01:16:43.715Z,6.64
2023-03-22T01:19:11.511Z,6.64
2023-03-22T01:21:39.761Z,6.65
2023-03-22T01:24:07.857Z,6.70
2023-03-22T01:26:36.242Z,6.70
2023-03-22T01:29:04.127Z,6.74
2023-03-22T01:31:32.310Z,6.74
2023-03-22T01:34:01.035Z,6.75
2023-03-22T01:36:31.007Z,6.79
2023-03-22T01:38:59.680Z,6.76
2023-03-22T01:41:27.812Z,6.75
2023-03-22T01:44:15.285Z,6.78
2023-03-22T01:46:44.995Z,6.73
2023-03-22T01:49:16.523Z,6.71
2023-03-22T01:51:47.372Z,6.71
2023-03-22T01:54:43.257Z,6.72
2023-03-22T01:57:42.265Z,6.69
2023-03-22T02:00:16.169Z,6.67
2023-03-22T02:03:02.816Z,6.65
2023-03-22T02:05:37.459Z,6.61
2023-03-22T02:08:09.626Z,6.59
2023-03-22T02:10:53.997Z,6.59
2023-03-22T02:13:58.016Z,6.60
2023-03-22T02:17:01.604Z,6.58
2023-03-22T02:19:49.993Z,6.62
2023-03-22T02:22:39.299Z,6.57
2023-03-22T02:25:29.243Z,6.52
2023-03-22T02:28:03.543Z,6.56
2023-03-22T02:30:44.015Z,6.55
2023-03-22T02:33:29.630Z,6.52
2023-03-22T02:36:03.695Z,6.50
2023-03-22T02:39:05.277Z,6.56
2023-03-22T02:41:56.378Z,6.52
2023-03-22T02:44:35.667Z,6.46
2023-03-22T02:47:08.568Z,6.44
2023-03-22T02:50:12.370Z,6.48
2023-03-22T02:52:48.289Z,6.39
2023-03-22T02:55:43.909Z,6.45
2023-03-22T02:58:22.432Z,6.41
2023-03-22T03:00:56.935Z,6.43
2023-03-22T03:03:29.631Z,6.40
2023-03-22T03:06:00.904Z,6.45
2023-03-22T03:08:29.139Z,6.48
2023-03-22T03:11:00.404Z,6.54
2023-03-22T03:13:28.706Z,6.50
2023-03-22T03:15:59.867Z,6.55
2023-03-22T03:19:21.029Z,6.61
2023-03-22T03:21:54.673Z,6.57
2023-03-22T03:24:43.233Z,6.53
2023-03-22T03:27:22.056Z,6.59
2023-03-22T03:30:35.513Z,6.67
2023-03-22T03:33:09.686Z,6.63
2023-03-22T03:35:44.019Z,6.63
2023-03-22T03:38:21.106Z,6.66
2023-03-22T03:41:04.236Z,6.67
2023-03-22T03:43:32.912Z,6.66
2023-03-22T03:46:00.788Z,6.67
2023-03-22T03:48:32.304Z,6.68
2023-03-22T03:51:00.682Z,6.70
2023-03-22T03:53:30.874Z,6.74
2023-03-22T03:56:00.138Z,6.76
2023-03-22T03:58:35.497Z,6.79
2023-03-22T04:01:04.454Z,6.81
2023-03-22T04:03:50.924Z,6.81
2023-03-22T04:06:44.378Z,6.82
2023-03-22T04:09:17.914Z,6.82
2023-03-22T04:11:55.610Z,6.88
2023-03-22T04:14:24.176Z,6.88
2023-03-22T04:16:54.132Z,6.90
2023-03-22T04:19:24.424Z,6.91
2023-03-22T04:21:53.435Z,6.95
2023-03-22T04:24:22.262Z,6.97
2023-03-22T04:26:53.095Z,7.02
2023-03-22T04:29:32.576Z,7.07
2023-03-22T04:32:24.726Z,7.16
2023-03-22T04:34:53.744Z,7.27
2023-03-22T04:37:43.217Z,7.38
2023-03-22T04:40:17.911Z,7.54
2023-03-22T04:43:04.592Z,7.69
2023-03-22T04:45:55.223Z,8.01
2023-03-22T04:48:28.470Z,8.32
2023-03-22T04:50:58.608Z,8.65
2023-03-22T04:53:28.718Z,8.90
2023-03-22T04:56:03.046Z,9.02
2023-03-22T04:58:31.925Z,9.39
2023-03-22T05:01:00.243Z,9.63
2023-03-22T05:03:29.073Z,9.75
2023-03-22T05:05:58.859Z,9.97
2023-03-22T05:08:34.722Z,10.23
2023-03-22T05:11:14.621Z,10.56
2023-03-22T05:13:46.528Z,10.73
2023-03-22T05:16:18.559Z,10.75
2023-03-22T05:18:54.785Z,11.22
2023-03-22T05:21:31.522Z,11.28
2023-03-22T05:24:01.066Z,11.66
2023-03-22T05:47:59.738Z,12.96
2023-03-22T05:50:31.467Z,12.95
2023-03-22T05:53:00.927Z,12.96
2023-03-22T05:55:40.630Z,12.92
2023-03-22T05:58:19.294Z,12.93
2023-03-22T06:00:51.791Z,12.88
2023-03-22T06:03:26.124Z,12.92
2023-03-22T06:06:01.241Z,12.98
2023-03-22T06:08:44.882Z,13.09
2023-03-22T06:11:23.507Z,13.26
2023-03-22T06:13:54.409Z,13.26
2023-03-22T06:16:27.401Z,13.20
2023-03-22T06:19:52.875Z,13.18
2023-03-22T06:22:26.954Z,13.19
2023-03-22T06:24:57.039Z,13.10
2023-03-22T06:27:36.784Z,13.42
2023-03-22T06:30:07.036Z,13.59
2023-03-22T06:32:47.726Z,13.66
2023-03-22T06:35:16.827Z,13.69
2023-03-22T06:37:47.749Z,13.74
2023-03-22T06:40:17.020Z,13.58
2023-03-22T06:42:49.135Z,13.63
2023-03-22T06:45:20.051Z,13.96
2023-03-22T06:47:48.091Z,14.01
2023-03-22T06:50:36.502Z,14.12
2023-03-22T06:53:39.102Z,14.23
2023-03-22T06:56:07.411Z,14.38
2023-03-22T06:58:47.016Z,14.33
2023-03-22T07:01:15.227Z,14.25
2023-03-22T07:03:46.401Z,14.46
2023-03-22T07:06:17.597Z,14.60
2023-03-22T07:08:51.996Z,14.75
2023-03-22T07:11:29.088Z,14.84
2023-03-22T07:14:01.706Z,14.71
2023-03-22T07:16:48.220Z,14.88
2023-03-22T07:19:18.905Z,15.01
2023-03-22T07:21:55.474Z,14.98
2023-03-22T07:24:33.171Z,14.95
2023-03-22T07:27:23.443Z,14.80
2023-03-22T07:30:04.646Z,14.83
2023-03-22T07:32:45.789Z,14.96
2023-03-22T07:35:17.364Z,14.95
2023-03-22T07:37:46.790Z,14.99
2023-03-22T07:40:26.906Z,14.86
2023-03-22T07:42:59.403Z,15.02
2023-03-22T07:45:55.598Z,15.12
2023-03-22T07:48:57.048Z,15.21
2023-03-22T07:52:02.056Z,15.16
2023-03-22T07:54:34.704Z,15.34
2023-03-22T07:57:14.396Z,15.47
2023-03-22T07:59:50.171Z,15.60
2023-03-22T08:02:23.214Z,15.78
2023-03-22T08:04:56.603Z,15.81
2023-03-22T08:07:33.073Z,16.01
2023-03-22T08:10:11.743Z,16.19
2023-03-22T08:12:51.518Z,16.21
2023-03-22T08:15:24.523Z,16.43
2023-03-22T08:18:00.007Z,16.15
2023-03-22T08:20:39.903Z,16.18
2023-03-22T08:23:20.114Z,16.35
2023-03-22T08:26:40.587Z,16.52
2023-03-22T08:29:20.567Z,16.70
2023-03-22T08:31:54.294Z,16.72
2023-03-22T08:34:24.504Z,16.49
2023-03-22T08:36:57.555Z,16.86
2023-03-22T08:39:26.220Z,16.97
2023-03-22T08:42:10.277Z,17.01
2023-03-22T08:44:38.976Z,16.78
2023-03-22T08:47:08.132Z,17.14
2023-03-22T08:49:36.936Z,17.17
2023-03-22T08:55:14.731Z,17.45
2023-03-22T08:58:05.075Z,17.56
2023-03-22T09:00:54.055Z,17.46
2023-03-22T09:03:46.512Z,17.62
2023-03-22T09:06:16.496Z,17.75
2023-03-22T09:08:49.125Z,17.61
2023-03-22T09:11:18.293Z,17.95
2023-03-22T09:13:50.762Z,18.00
2023-03-22T09:16:23.564Z,17.86
2023-03-22T09:18:53.621Z,18.03
2023-03-22T09:21:23.276Z,18.11
2023-03-22T09:24:11.127Z,18.55
2023-03-22T09:26:47.528Z,18.53
2023-03-22T09:29:20.167Z,18.68
2023-03-22T09:31:49.869Z,18.74
2023-03-22T09:34:28.380Z,18.72
2023-03-22T09:37:02.431Z,18.54
2023-03-22T09:39:38.676Z,18.74
2023-03-22T09:42:16.525Z,18.76
2023-03-22T09:44:44.572Z,18.77
2023-03-22T11:56:14.798Z,19.22
2023-03-22T11:58:44.437Z,19.24
2023-03-22T12:01:37.396Z,19.25
2023-03-22T12:04:06.405Z,19.08
2023-03-22T12:06:38.396Z,19.32
2023-03-22T12:09:12.104Z,19.38
2023-03-22T12:11:40.830Z,19.36
2023-03-22T12:14:23.080Z,19.71
2023-03-22T12:16:53.055Z,19.82
2023-03-22T12:19:27.231Z,20.00
2023-03-22T12:21:54.748Z,20.30
2023-03-22T12:24:30.940Z,20.24
2023-03-22T12:27:18.908Z,20.37
2023-03-22T12:30:14.468Z,20.69
2023-03-22T12:32:49.700Z,20.72
2023-03-22T12:35:27.281Z,20.54
2023-03-22T12:37:56.962Z,21.31
2023-03-22T12:40:36.748Z,21.40
2023-03-22T12:43:27.292Z,21.78
2023-03-22T12:45:59.299Z,21.84
2023-03-22T12:48:46.360Z,21.66
2023-03-22T12:51:14.314Z,22.51
2023-03-22T12:53:52.818Z,22.04
2023-03-22T12:56:24.768Z,22.33
2023-03-22T12:58:58.340Z,22.44
2023-03-22T13:01:44.248Z,23.29
2023-03-22T13:04:30.173Z,23.02
2023-03-22T13:07:29.049Z,23.55
2023-03-22T13:09:56.871Z,24.13
2023-03-22T13:12:27.412Z,23.42
2023-03-22T13:15:16.653Z,23.56
2023-03-22T13:17:45.076Z,24.01
2023-03-22T13:20:14.850Z,24.09
2023-03-22T13:22:45.932Z,23.98
2023-03-22T13:25:19.817Z,23.33
2023-03-22T13:27:53.303Z,24.26
2023-03-22T13:30:43.968Z,23.92
2023-03-22T13:33:11.885Z,24.14
2023-03-22T13:35:51.196Z,24.31
2023-03-22T13:38:24.198Z,24.30
2023-03-22T13:40:52.790Z,24.58
2023-03-22T13:43:31.514Z,24.54
2023-03-22T13:46:08.264Z,24.20
2023-03-22T13:48:44.667Z,23.72
2023-03-22T13:51:22.723Z,23.38
2023-03-22T13:54:08.616Z,22.62
2023-03-22T13:56:42.463Z,21.43
2023-03-22T13:59:29.878Z,21.40
2023-03-22T14:02:02.159Z,21.27
2023-03-22T14:04:42.722Z,21.51
2023-03-22T14:07:35.710Z,21.35
2023-03-22T14:10:06.938Z,21.64
2023-03-22T14:12:56.543Z,21.86
2023-03-22T14:15:53.657Z,21.28
2023-03-22T14:18:28.106Z,21.32
2023-03-22T14:21:00.328Z,21.03
